sensor_id;sensor_type;location;lat;lon;timestamp;temperature;humidity
1063;DHT22;520;50.932;6.962;2023-03-07T00:01:31;6.80;99.90
1063;DHT22;520;50.932;6.962;2023-03-07T00:04:02;6.80;99.90
1063;DHT22;520;50.932;6.962;2023-03-07T00:06:34;6.80;99.90
1063;DHT22;520;50.932;6.962;2023-03-07T00:09:02;6.70;99.90
1063;DHT22;520;50.932;6.962;2023-03-07T00:11:31;6.60;99.90
1063;DHT22;520;50.932;6.962;2023-03-07T00:14:13;6.60;99.90
1063;DHT22;520;50.932;6.962;2023-03-07T00:16:51;6.80;99.90
1063;DHT22;520;50.932;6.962;2023-03-07T00:19:25;6.80;99.90
1063;DHT22;520;50.932;6.962;2023-03-07T00:22:02;6.80;99.90
1063;DHT22;520;50.932;6.962;2023-03-07T00:24:31;6.90;99.90
1063;DHT22;520;50.932;6.962;2023-03-07T00:27:01;6.80;99.90
1063;DHT22;520;50.932;6.962;2023-03-07T00:29:33;6.80;99.90
1063;DHT22;520;50.932;6.962;2023-03-07T00:32:02;6.70;99.90
1063;DHT22;520;50.932;6.962;2023-03-07T00:34:35;6.80;99.90
1063;DHT22;520;50.932;6.962;2023-03-07T00:37:02;6.80;99.90
1063;DHT22;520;50.932;6.962;2023-03-07T00:39:31;6.90;99.90
1063;DHT22;520;50.932;6.962;2023-03-07T00:42:00;6.90;99.90
1063;DHT22;520;50.932;6.962;2023-03-07T00:44:33;6.70;99.90
1063;DHT22;520;50.932;6.962;2023-03-07T00:47:02;6.70;99.90
1063;DHT22;520;50.932;6.962;2023-03-07T00:49:37;6.50;99.90
1063;DHT22;520;50.932;6.962;2023-03-07T00:52:08;6.60;99.90
1063;DHT22;520;50.932;6.962;2023-03-07T00:54:40;6.60;99.90
1063;DHT22;520;50.932;6.962;2023-03-07T00:57:13;6.50;99.90
1063;DHT22;520;50.932;6.962;2023-03-07T00:59:51;6.50;99.90
1063;DHT22;520;50.932;6.962;2023-03-07T01:02:39;6.70;99.90
1063;DHT22;520;50.932;6.962;2023-03-07T01:05:08;6.70;99.90
1063;DHT22;520;50.932;6.962;2023-03-07T01:07:47;6.90;99.90
1063;DHT22;520;50.932;6.962;2023-03-07T01:10:29;6.70;99.90
1063;DHT22;520;50.932;6.962;2023-03-07T01:13:07;6.60;99.90
1063;DHT22;520;50.932;6.962;2023-03-07T01:15:38;6.70;99.90
1063;DHT22;520;50.932;6.962;2023-03-07T01:18:09;6.80;99.90
1063;DHT22;520;50.932;6.962;2023-03-07T01:20:44;6.70;99.90
1063;DHT22;520;50.932;6.962;2023-03-07T01:23:11;6.60;99.90
1063;DHT22;520;50.932;6.962;2023-03-07T01:25:42;6.60;99.90
1063;DHT22;520;50.932;6.962;2023-03-07T01:28:17;6.60;99.90
1063;DHT22;520;50.932;6.962;2023-03-07T01:31:03;6.50;99.90
1063;DHT22;520;50.932;6.962;2023-03-07T01:33:37;6.50;99.90
1063;DHT22;520;50.932;6.962;2023-03-07T01:36:22;6.50;99.90
1063;DHT22;520;50.932;6.962;2023-03-07T01:39:03;6.50;99.90
1063;DHT22;520;50.932;6.962;2023-03-07T01:41:40;6.60;99.90
1063;DHT22;520;50.932;6.962;2023-03-07T01:45:06;6.50;99.90
1063;DHT22;520;50.932;6.962;2023-03-07T01:47:47;6.50;99.90
1063;DHT22;520;50.932;6.962;2023-03-07T01:50:31;6.60;99.90
1063;DHT22;520;50.932;6.962;2023-03-07T01:53:07;6.50;99.90
1063;DHT22;520;50.932;6.962;2023-03-07T01:55:55;6.50;99.90
1063;DHT22;520;50.932;6.962;2023-03-07T01:58:23;6.40;99.90
1063;DHT22;520;50.932;6.962;2023-03-07T02:00:56;6.40;99.90
1063;DHT22;520;50.932;6.962;2023-03-07T02:03:34;6.40;99.90
1063;DHT22;520;50.932;6.962;2023-03-07T02:06:13;6.40;99.90
1063;DHT22;520;50.932;6.962;2023-03-07T02:08:41;6.40;99.90
1063;DHT22;520;50.932;6.962;2023-03-07T02:11:15;6.40;99.90
1063;DHT22;520;50.932;6.962;2023-03-07T02:13:49;6.40;99.90
1063;DHT22;520;50.932;6.962;2023-03-07T02:16:19;6.30;99.90
1063;DHT22;520;50.932;6.962;2023-03-07T02:18:55;6.40;99.90
1063;DHT22;520;50.932;6.962;2023-03-07T02:21:42;6.40;99.90
1063;DHT22;520;50.932;6.962;2023-03-07T02:24:39;6.30;99.90
1063;DHT22;520;50.932;6.962;2023-03-07T02:27:38;6.30;99.90
1063;DHT22;520;50.932;6.962;2023-03-07T02:30:18;6.40;99.90
1063;DHT22;520;50.932;6.962;2023-03-07T02:33:04;6.30;99.90
1063;DHT22;520;50.932;6.962;2023-03-07T02:35:47;6.40;99.90
1063;DHT22;520;50.932;6.962;2023-03-07T02:38:22;6.40;99.90
1063;DHT22;520;50.932;6.962;2023-03-07T02:41:10;6.40;99.90
1063;DHT22;520;50.932;6.962;2023-03-07T02:43:50;6.40;99.90
1063;DHT22;520;50.932;6.962;2023-03-07T02:46:26;6.50;99.90
1063;DHT22;520;50.932;6.962;2023-03-07T02:49:11;6.60;99.90
1063;DHT22;520;50.932;6.962;2023-03-07T02:52:05;6.50;99.90
1063;DHT22;520;50.932;6.962;2023-03-07T02:54:34;6.50;99.90
1063;DHT22;520;50.932;6.962;2023-03-07T02:57:21;6.50;99.90
1063;DHT22;520;50.932;6.962;2023-03-07T02:59:54;6.50;99.90
1063;DHT22;520;50.932;6.962;2023-03-07T03:02:36;6.50;99.90
1063;DHT22;520;50.932;6.962;2023-03-07T03:05:11;6.50;99.90
1063;DHT22;520;50.932;6.962;2023-03-07T03:07:45;6.50;99.90
1063;DHT22;520;50.932;6.962;2023-03-07T03:10:24;6.40;99.90
1063;DHT22;520;50.932;6.962;2023-03-07T03:13:06;6.60;99.90
1063;DHT22;520;50.932;6.962;2023-03-07T03:15:43;6.60;99.90
1063;DHT22;520;50.932;6.962;2023-03-07T03:18:27;6.50;99.90
1063;DHT22;520;50.932;6.962;2023-03-07T03:21:10;6.60;99.90
1063;DHT22;520;50.932;6.962;2023-03-07T03:23:52;6.70;99.90
1063;DHT22;520;50.932;6.962;2023-03-07T03:26:24;6.60;99.90
1063;DHT22;520;50.932;6.962;2023-03-07T03:29:02;6.70;99.90
1063;DHT22;520;50.932;6.962;2023-03-07T03:31:53;6.60;99.90
1063;DHT22;520;50.932;6.962;2023-03-07T03:34:20;6.60;99.90
1063;DHT22;520;50.932;6.962;2023-03-07T03:36:52;6.50;99.90
1063;DHT22;520;50.932;6.962;2023-03-07T03:39:24;6.50;99.90
1063;DHT22;520;50.932;6.962;2023-03-07T03:41:59;6.50;99.90
1063;DHT22;520;50.932;6.962;2023-03-07T03:44:36;6.50;99.90
1063;DHT22;520;50.932;6.962;2023-03-07T03:47:14;6.40;99.90
1063;DHT22;520;50.932;6.962;2023-03-07T03:49:48;6.40;99.90
1063;DHT22;520;50.932;6.962;2023-03-07T03:52:16;6.40;99.90
1063;DHT22;520;50.932;6.962;2023-03-07T03:54:48;6.60;99.90
1063;DHT22;520;50.932;6.962;2023-03-07T03:57:15;6.60;99.90
1063;DHT22;520;50.932;6.962;2023-03-07T03:59:53;6.50;99.90
1063;DHT22;520;50.932;6.962;2023-03-07T04:02:21;6.50;99.90
1063;DHT22;520;50.932;6.962;2023-03-07T04:04:51;6.50;99.90
1063;DHT22;520;50.932;6.962;2023-03-07T04:07:20;6.40;99.90
1063;DHT22;520;50.932;6.962;2023-03-07T04:09:51;6.70;99.90
1063;DHT22;520;50.932;6.962;2023-03-07T04:12:26;6.70;99.90
1063;DHT22;520;50.932;6.962;2023-03-07T04:15:13;6.50;99.90
1063;DHT22;520;50.932;6.962;2023-03-07T04:17:46;6.50;99.90
1063;DHT22;520;50.932;6.962;2023-03-07T04:20:13;6.40;99.90
1063;DHT22;520;50.932;6.962;2023-03-07T04:22:46;6.40;99.90
1063;DHT22;520;50.932;6.962;2023-03-07T04:25:24;6.30;99.90
1063;DHT22;520;50.932;6.962;2023-03-07T04:27:59;6.30;99.90
1063;DHT22;520;50.932;6.962;2023-03-07T04:30:30;6.50;99.90
1063;DHT22;520;50.932;6.962;2023-03-07T04:32:58;6.40;99.90
1063;DHT22;520;50.932;6.962;2023-03-07T04:35:39;6.50;99.90
1063;DHT22;520;50.932;6.962;2023-03-07T04:38:17;6.60;99.90
1063;DHT22;520;50.932;6.962;2023-03-07T04:40:56;6.60;99.90
1063;DHT22;520;50.932;6.962;2023-03-07T04:43:37;6.50;99.90
1063;DHT22;520;50.932;6.962;2023-03-07T04:46:12;6.50;99.90
1063;DHT22;520;50.932;6.962;2023-03-07T04:49:06;6.60;99.90
1063;DHT22;520;50.932;6.962;2023-03-07T04:54:41;6.60;99.90
1063;DHT22;520;50.932;6.962;2023-03-07T04:57:28;6.80;99.90
1063;DHT22;520;50.932;6.962;2023-03-07T05:00:11;6.50;99.90
1063;DHT22;520;50.932;6.962;2023-03-07T05:02:44;6.60;99.90
1063;DHT22;520;50.932;6.962;2023-03-07T05:05:23;6.70;99.90
1063;DHT22;520;50.932;6.962;2023-03-07T05:08:01;6.70;99.90
1063;DHT22;520;50.932;6.962;2023-03-07T05:10:42;6.90;99.90
1063;DHT22;520;50.932;6.962;2023-03-07T05:13:15;6.70;99.90
1063;DHT22;520;50.932;6.962;2023-03-07T05:15:50;6.80;99.90
1063;DHT22;520;50.932;6.962;2023-03-07T05:18:38;6.60;99.90
1063;DHT22;520;50.932;6.962;2023-03-07T05:21:08;6.60;99.90
1063;DHT22;520;50.932;6.962;2023-03-07T05:23:58;6.60;99.90
1063;DHT22;520;50.932;6.962;2023-03-07T05:26:35;6.60;99.90
1063;DHT22;520;50.932;6.962;2023-03-07T05:29:10;6.50;99.90
1063;DHT22;520;50.932;6.962;2023-03-07T05:31:47;6.70;99.90
1063;DHT22;520;50.932;6.962;2023-03-07T05:34:43;6.70;99.90
1063;DHT22;520;50.932;6.962;2023-03-07T05:37:39;6.60;99.90
1063;DHT22;520;50.932;6.962;2023-03-07T05:40:14;6.60;99.90
1063;DHT22;520;50.932;6.962;2023-03-07T05:43:05;6.60;99.90
1063;DHT22;520;50.932;6.962;2023-03-07T05:45:55;6.60;99.90
1063;DHT22;520;50.932;6.962;2023-03-07T05:48:38;6.60;99.90
1063;DHT22;520;50.932;6.962;2023-03-07T05:51:18;6.80;99.90
1063;DHT22;520;50.932;6.962;2023-03-07T05:53:55;6.80;99.90
1063;DHT22;520;50.932;6.962;2023-03-07T05:56:31;6.80;99.90
1063;DHT22;520;50.932;6.962;2023-03-07T05:59:34;6.80;99.90
1063;DHT22;520;50.932;6.962;2023-03-07T06:02:29;7.00;99.90
1063;DHT22;520;50.932;6.962;2023-03-07T06:05:10;7.20;99.90
1063;DHT22;520;50.932;6.962;2023-03-07T06:07:53;7.10;99.90
1063;DHT22;520;50.932;6.962;2023-03-07T06:10:23;6.80;99.90
1063;DHT22;520;50.932;6.962;2023-03-07T06:12:58;7.00;99.90
1063;DHT22;520;50.932;6.962;2023-03-07T06:18:30;7.00;99.90
1063;DHT22;520;50.932;6.962;2023-03-07T06:23:52;6.80;99.90
1063;DHT22;520;50.932;6.962;2023-03-07T06:26:46;6.80;99.90
1063;DHT22;520;50.932;6.962;2023-03-07T06:29:26;6.60;99.90
1063;DHT22;520;50.932;6.962;2023-03-07T06:32:29;6.60;99.90
1063;DHT22;520;50.932;6.962;2023-03-07T06:35:21;6.60;99.90
1063;DHT22;520;50.932;6.962;2023-03-07T06:38:11;6.60;99.90
1063;DHT22;520;50.932;6.962;2023-03-07T06:40:58;6.60;99.90
1063;DHT22;520;50.932;6.962;2023-03-07T06:43:34;6.90;99.90
1063;DHT22;520;50.932;6.962;2023-03-07T06:46:22;6.70;99.90
1063;DHT22;520;50.932;6.962;2023-03-07T06:49:01;6.70;99.90
1063;DHT22;520;50.932;6.962;2023-03-07T06:52:02;6.70;99.90
1063;DHT22;520;50.932;6.962;2023-03-07T06:54:44;6.70;99.90
1063;DHT22;520;50.932;6.962;2023-03-07T06:57:51;7.10;99.90
1063;DHT22;520;50.932;6.962;2023-03-07T07:03:27;7.30;99.90
1063;DHT22;520;50.932;6.962;2023-03-07T07:06:00;7.20;99.90
1063;DHT22;520;50.932;6.962;2023-03-07T07:08:41;7.30;99.90
1063;DHT22;520;50.932;6.962;2023-03-07T07:11:38;7.20;99.90
1063;DHT22;520;50.932;6.962;2023-03-07T07:14:20;7.30;99.90
1063;DHT22;520;50.932;6.962;2023-03-07T07:17:01;7.30;99.90
1063;DHT22;520;50.932;6.962;2023-03-07T07:19:49;7.10;99.90
1063;DHT22;520;50.932;6.962;2023-03-07T07:22:25;7.10;99.90
1063;DHT22;520;50.932;6.962;2023-03-07T07:27:58;7.30;99.90
1063;DHT22;520;50.932;6.962;2023-03-07T07:30:39;7.20;99.90
1063;DHT22;520;50.932;6.962;2023-03-07T07:33:11;7.10;99.90
1063;DHT22;520;50.932;6.962;2023-03-07T07:35:46;7.00;99.90
1063;DHT22;520;50.932;6.962;2023-03-07T07:38:18;7.10;99.90
1063;DHT22;520;50.932;6.962;2023-03-07T07:40:55;6.90;99.90
1063;DHT22;520;50.932;6.962;2023-03-07T07:43:32;7.00;99.90
1063;DHT22;520;50.932;6.962;2023-03-07T07:48:57;7.40;99.90
1063;DHT22;520;50.932;6.962;2023-03-07T07:52:04;7.10;99.90
1063;DHT22;520;50.932;6.962;2023-03-07T07:54:47;7.20;99.90
1063;DHT22;520;50.932;6.962;2023-03-07T07:57:56;7.20;99.90
1063;DHT22;520;50.932;6.962;2023-03-07T08:00:54;7.30;99.90
1063;DHT22;520;50.932;6.962;2023-03-07T08:03:32;7.30;99.90
1063;DHT22;520;50.932;6.962;2023-03-07T08:06:33;7.00;99.90
1063;DHT22;520;50.932;6.962;2023-03-07T08:09:15;7.00;99.90
1063;DHT22;520;50.932;6.962;2023-03-07T08:11:42;7.10;99.90
1063;DHT22;520;50.932;6.962;2023-03-07T08:14:23;7.30;99.90
1063;DHT22;520;50.932;6.962;2023-03-07T08:16:50;7.40;99.90
1063;DHT22;520;50.932;6.962;2023-03-07T08:19:31;7.40;99.90
1063;DHT22;520;50.932;6.962;2023-03-07T08:22:01;7.30;99.90
1063;DHT22;520;50.932;6.962;2023-03-07T08:24:28;7.10;99.90
1063;DHT22;520;50.932;6.962;2023-03-07T08:27:18;7.10;99.90
1063;DHT22;520;50.932;6.962;2023-03-07T08:30:08;7.10;99.90
1063;DHT22;520;50.932;6.962;2023-03-07T08:32:50;7.20;99.90
1063;DHT22;520;50.932;6.962;2023-03-07T08:35:25;7.40;99.90
1063;DHT22;520;50.932;6.962;2023-03-07T08:38:02;7.30;99.90
1063;DHT22;520;50.932;6.962;2023-03-07T08:40:48;7.30;99.90
1063;DHT22;520;50.932;6.962;2023-03-07T08:43:36;7.30;99.90
1063;DHT22;520;50.932;6.962;2023-03-07T08:46:05;7.40;99.90
1063;DHT22;520;50.932;6.962;2023-03-07T08:48:32;7.40;99.90
1063;DHT22;520;50.932;6.962;2023-03-07T08:51:04;7.40;99.90
1063;DHT22;520;50.932;6.962;2023-03-07T08:53:31;7.10;99.90
1063;DHT22;520;50.932;6.962;2023-03-07T08:55:58;7.30;99.90
1063;DHT22;520;50.932;6.962;2023-03-07T08:58:25;7.40;99.90
1063;DHT22;520;50.932;6.962;2023-03-07T09:00:57;7.60;99.90
1063;DHT22;520;50.932;6.962;2023-03-07T09:03:23;7.40;99.90
1063;DHT22;520;50.932;6.962;2023-03-07T09:05:50;7.30;99.90
1063;DHT22;520;50.932;6.962;2023-03-07T09:08:17;7.40;99.90
1063;DHT22;520;50.932;6.962;2023-03-07T09:10:44;7.30;99.90
1063;DHT22;520;50.932;6.962;2023-03-07T09:13:11;7.20;99.90
1063;DHT22;520;50.932;6.962;2023-03-07T09:15:39;7.50;99.90
1063;DHT22;520;50.932;6.962;2023-03-07T09:18:09;7.50;99.90
1063;DHT22;520;50.932;6.962;2023-03-07T09:20:37;7.50;99.90
1063;DHT22;520;50.932;6.962;2023-03-07T09:23:04;7.50;99.90
1063;DHT22;520;50.932;6.962;2023-03-07T09:25:31;7.50;99.90
1063;DHT22;520;50.932;6.962;2023-03-07T09:27:58;7.50;99.90
1063;DHT22;520;50.932;6.962;2023-03-07T09:30:25;7.40;99.90
1063;DHT22;520;50.932;6.962;2023-03-07T09:32:54;7.40;99.90
1063;DHT22;520;50.932;6.962;2023-03-07T09:35:20;7.30;99.90
1063;DHT22;520;50.932;6.962;2023-03-07T09:37:47;7.30;99.90
1063;DHT22;520;50.932;6.962;2023-03-07T09:40:20;7.40;99.90
1063;DHT22;520;50.932;6.962;2023-03-07T09:43:06;7.40;99.90
1063;DHT22;520;50.932;6.962;2023-03-07T09:51:42;7.50;99.90
1063;DHT22;520;50.932;6.962;2023-03-07T09:54:16;7.40;99.90
1063;DHT22;520;50.932;6.962;2023-03-07T09:56:47;7.40;99.90
1063;DHT22;520;50.932;6.962;2023-03-07T10:01:54;7.50;99.90
1063;DHT22;520;50.932;6.962;2023-03-07T10:04:34;7.70;99.90
1063;DHT22;520;50.932;6.962;2023-03-07T10:07:08;7.70;99.90
1063;DHT22;520;50.932;6.962;2023-03-07T10:09:38;7.90;99.90
1063;DHT22;520;50.932;6.962;2023-03-07T10:15:04;7.60;99.90
1063;DHT22;520;50.932;6.962;2023-03-07T10:25:53;7.60;99.90
1063;DHT22;520;50.932;6.962;2023-03-07T10:28:27;7.60;99.90
1063;DHT22;520;50.932;6.962;2023-03-07T10:31:14;7.70;99.90
1063;DHT22;520;50.932;6.962;2023-03-07T10:33:44;7.60;99.90
1063;DHT22;520;50.932;6.962;2023-03-07T10:36:37;7.60;99.90
1063;DHT22;520;50.932;6.962;2023-03-07T10:39:24;7.50;99.90
1063;DHT22;520;50.932;6.962;2023-03-07T10:41:53;7.40;99.90
1063;DHT22;520;50.932;6.962;2023-03-07T10:44:21;7.60;99.90
1063;DHT22;520;50.932;6.962;2023-03-07T10:46:56;7.60;99.90
1063;DHT22;520;50.932;6.962;2023-03-07T10:49:28;7.60;99.90
1063;DHT22;520;50.932;6.962;2023-03-07T10:52:05;7.70;99.90
1063;DHT22;520;50.932;6.962;2023-03-07T10:54:36;7.60;99.90
1063;DHT22;520;50.932;6.962;2023-03-07T10:57:14;7.70;99.90
1063;DHT22;520;50.932;6.962;2023-03-07T10:59:46;7.70;99.90
1063;DHT22;520;50.932;6.962;2023-03-07T11:04:57;7.50;99.90
1063;DHT22;520;50.932;6.962;2023-03-07T11:09:55;7.40;99.90
1063;DHT22;520;50.932;6.962;2023-03-07T11:12:25;7.50;99.90
1063;DHT22;520;50.932;6.962;2023-03-07T11:14:54;7.50;99.90
1063;DHT22;520;50.932;6.962;2023-03-07T11:17:39;7.50;99.90
1063;DHT22;520;50.932;6.962;2023-03-07T11:20:26;7.50;99.90
1063;DHT22;520;50.932;6.962;2023-03-07T11:25:49;7.50;99.90
1063;DHT22;520;50.932;6.962;2023-03-07T11:30:52;7.50;99.90
1063;DHT22;520;50.932;6.962;2023-03-07T11:36:32;7.50;99.90
1063;DHT22;520;50.932;6.962;2023-03-07T11:39:19;7.60;99.90
1063;DHT22;520;50.932;6.962;2023-03-07T11:41:54;7.70;99.90
1063;DHT22;520;50.932;6.962;2023-03-07T11:44:48;7.70;99.90
1063;DHT22;520;50.932;6.962;2023-03-07T11:47:25;7.70;99.90
1063;DHT22;520;50.932;6.962;2023-03-07T11:50:21;7.70;99.90
1063;DHT22;520;50.932;6.962;2023-03-07T11:53:16;7.60;99.90
1063;DHT22;520;50.932;6.962;2023-03-07T11:58:48;7.60;99.90
1063;DHT22;520;50.932;6.962;2023-03-07T12:07:03;7.60;99.90
1063;DHT22;520;50.932;6.962;2023-03-07T12:09:42;7.60;99.90
1063;DHT22;520;50.932;6.962;2023-03-07T12:21:04;7.60;99.90
1063;DHT22;520;50.932;6.962;2023-03-07T12:23:39;7.80;99.90
1063;DHT22;520;50.932;6.962;2023-03-07T12:29:00;8.00;99.90
1063;DHT22;520;50.932;6.962;2023-03-07T12:31:35;7.80;99.90
1063;DHT22;520;50.932;6.962;2023-03-07T12:37:08;7.80;99.90
1063;DHT22;520;50.932;6.962;2023-03-07T12:39:52;7.50;99.90
1063;DHT22;520;50.932;6.962;2023-03-07T12:42:34;7.40;99.90
1063;DHT22;520;50.932;6.962;2023-03-07T12:45:12;7.40;99.90
1063;DHT22;520;50.932;6.962;2023-03-07T12:51:03;7.30;99.90
1063;DHT22;520;50.932;6.962;2023-03-07T12:53:41;7.20;99.90
1063;DHT22;520;50.932;6.962;2023-03-07T12:56:17;7.10;99.90
1063;DHT22;520;50.932;6.962;2023-03-07T12:59:11;7.10;99.90
1063;DHT22;520;50.932;6.962;2023-03-07T13:04:35;7.10;99.90
1063;DHT22;520;50.932;6.962;2023-03-07T13:07:08;7.00;99.90
1063;DHT22;520;50.932;6.962;2023-03-07T13:09:42;6.90;99.90
1063;DHT22;520;50.932;6.962;2023-03-07T13:14:46;6.90;99.90
1063;DHT22;520;50.932;6.962;2023-03-07T13:25:54;6.60;99.90
1063;DHT22;520;50.932;6.962;2023-03-07T13:28:44;6.50;99.90
1063;DHT22;520;50.932;6.962;2023-03-07T13:33:41;6.60;99.90
1063;DHT22;520;50.932;6.962;2023-03-07T13:36:34;6.50;99.90
1063;DHT22;520;50.932;6.962;2023-03-07T13:39:37;6.50;99.90
1063;DHT22;520;50.932;6.962;2023-03-07T13:42:42;6.60;99.90
1063;DHT22;520;50.932;6.962;2023-03-07T13:48:12;6.60;99.90
1063;DHT22;520;50.932;6.962;2023-03-07T13:53:14;6.60;99.90
1063;DHT22;520;50.932;6.962;2023-03-07T13:55:46;6.50;99.90
1063;DHT22;520;50.932;6.962;2023-03-07T13:58:24;6.60;99.90
1063;DHT22;520;50.932;6.962;2023-03-07T14:01:16;6.70;99.90
1063;DHT22;520;50.932;6.962;2023-03-07T14:03:49;6.70;99.90
1063;DHT22;520;50.932;6.962;2023-03-07T14:06:38;6.80;99.90
1063;DHT22;520;50.932;6.962;2023-03-07T14:09:47;6.80;99.90
1063;DHT22;520;50.932;6.962;2023-03-07T14:15:31;6.40;99.90
1063;DHT22;520;50.932;6.962;2023-03-07T14:18:28;6.40;99.90
1063;DHT22;520;50.932;6.962;2023-03-07T14:26:38;6.20;99.90
1063;DHT22;520;50.932;6.962;2023-03-07T14:29:15;6.20;99.90
1063;DHT22;520;50.932;6.962;2023-03-07T14:31:53;6.10;99.90
1063;DHT22;520;50.932;6.962;2023-03-07T14:36:56;6.10;99.90
1063;DHT22;520;50.932;6.962;2023-03-07T14:45:15;6.20;99.90
1063;DHT22;520;50.932;6.962;2023-03-07T14:50:32;6.00;99.90
1063;DHT22;520;50.932;6.962;2023-03-07T14:53:04;6.40;99.90
1063;DHT22;520;50.932;6.962;2023-03-07T14:55:37;6.30;99.90
1063;DHT22;520;50.932;6.962;2023-03-07T14:58:05;6.10;99.90
1063;DHT22;520;50.932;6.962;2023-03-07T15:00:32;5.90;99.90
1063;DHT22;520;50.932;6.962;2023-03-07T15:03:05;5.90;99.90
1063;DHT22;520;50.932;6.962;2023-03-07T15:05:45;6.30;99.90
1063;DHT22;520;50.932;6.962;2023-03-07T15:08:18;6.50;99.90
1063;DHT22;520;50.932;6.962;2023-03-07T15:11:05;6.50;99.90
1063;DHT22;520;50.932;6.962;2023-03-07T15:13:45;6.50;99.90
1063;DHT22;520;50.932;6.962;2023-03-07T15:16:37;6.50;99.90
1063;DHT22;520;50.932;6.962;2023-03-07T15:19:27;6.30;99.90
1063;DHT22;520;50.932;6.962;2023-03-07T15:21:57;6.00;99.90
1063;DHT22;520;50.932;6.962;2023-03-07T15:24:38;5.70;99.90
1063;DHT22;520;50.932;6.962;2023-03-07T15:27:14;5.60;99.90
1063;DHT22;520;50.932;6.962;2023-03-07T15:29:46;5.50;99.90
1063;DHT22;520;50.932;6.962;2023-03-07T15:32:37;5.40;99.90
1063;DHT22;520;50.932;6.962;2023-03-07T15:37:32;5.40;99.90
1063;DHT22;520;50.932;6.962;2023-03-07T15:42:58;5.40;99.90
1063;DHT22;520;50.932;6.962;2023-03-07T15:45:41;5.50;99.90
1063;DHT22;520;50.932;6.962;2023-03-07T15:50:36;5.50;99.90
1063;DHT22;520;50.932;6.962;2023-03-07T15:53:08;5.50;99.90
1063;DHT22;520;50.932;6.962;2023-03-07T15:55:57;5.40;99.90
1063;DHT22;520;50.932;6.962;2023-03-07T15:58:25;5.30;99.90
1063;DHT22;520;50.932;6.962;2023-03-07T16:01:25;5.30;99.90
1063;DHT22;520;50.932;6.962;2023-03-07T16:03:57;5.20;99.90
1063;DHT22;520;50.932;6.962;2023-03-07T16:09:04;5.10;99.90
1063;DHT22;520;50.932;6.962;2023-03-07T16:11:32;5.10;99.90
1063;DHT22;520;50.932;6.962;2023-03-07T16:13:59;5.10;99.90
1063;DHT22;520;50.932;6.962;2023-03-07T16:16:29;5.00;99.90
1063;DHT22;520;50.932;6.962;2023-03-07T16:18:56;5.10;99.90
1063;DHT22;520;50.932;6.962;2023-03-07T16:21:24;5.10;99.90
1063;DHT22;520;50.932;6.962;2023-03-07T16:23:53;5.00;99.90
1063;DHT22;520;50.932;6.962;2023-03-07T16:26:23;5.00;99.90
1063;DHT22;520;50.932;6.962;2023-03-07T16:28:51;5.00;99.90
1063;DHT22;520;50.932;6.962;2023-03-07T16:31:19;5.00;99.90
1063;DHT22;520;50.932;6.962;2023-03-07T16:33:47;5.00;99.90
1063;DHT22;520;50.932;6.962;2023-03-07T16:36:14;4.90;99.90
1063;DHT22;520;50.932;6.962;2023-03-07T16:38:45;4.80;99.90
1063;DHT22;520;50.932;6.962;2023-03-07T16:41:16;4.80;99.90
1063;DHT22;520;50.932;6.962;2023-03-07T16:43:54;4.80;99.90
1063;DHT22;520;50.932;6.962;2023-03-07T16:46:25;4.90;99.90
1063;DHT22;520;50.932;6.962;2023-03-07T16:48:59;5.00;99.90
1063;DHT22;520;50.932;6.962;2023-03-07T16:51:37;4.90;99.90
1063;DHT22;520;50.932;6.962;2023-03-07T16:54:06;5.00;99.90
1063;DHT22;520;50.932;6.962;2023-03-07T16:56:43;5.30;99.90
1063;DHT22;520;50.932;6.962;2023-03-07T16:59:21;5.40;99.90
1063;DHT22;520;50.932;6.962;2023-03-07T17:02:19;5.40;99.90
1063;DHT22;520;50.932;6.962;2023-03-07T17:05:02;5.30;99.90
1063;DHT22;520;50.932;6.962;2023-03-07T17:07:38;5.20;99.90
1063;DHT22;520;50.932;6.962;2023-03-07T17:10:14;5.10;99.90
1063;DHT22;520;50.932;6.962;2023-03-07T17:12:48;4.90;99.90
1063;DHT22;520;50.932;6.962;2023-03-07T17:18:04;5.00;99.90
1063;DHT22;520;50.932;6.962;2023-03-07T17:20:44;5.10;99.90
1063;DHT22;520;50.932;6.962;2023-03-07T17:23:29;5.10;99.90
1063;DHT22;520;50.932;6.962;2023-03-07T17:26:17;5.00;99.90
1063;DHT22;520;50.932;6.962;2023-03-07T17:31:38;4.90;99.90
1063;DHT22;520;50.932;6.962;2023-03-07T17:34:04;4.80;99.90
1063;DHT22;520;50.932;6.962;2023-03-07T17:36:31;4.80;99.90
1063;DHT22;520;50.932;6.962;2023-03-07T17:38:57;4.70;99.90
1063;DHT22;520;50.932;6.962;2023-03-07T17:41:25;4.80;99.90
1063;DHT22;520;50.932;6.962;2023-03-07T17:43:52;4.80;99.90
1063;DHT22;520;50.932;6.962;2023-03-07T17:46:20;4.70;99.90
1063;DHT22;520;50.932;6.962;2023-03-07T17:49:23;4.70;99.90
1063;DHT22;520;50.932;6.962;2023-03-07T17:52:00;4.70;99.90
1063;DHT22;520;50.932;6.962;2023-03-07T17:54:35;4.60;99.90
1063;DHT22;520;50.932;6.962;2023-03-07T17:57:13;4.70;99.90
1063;DHT22;520;50.932;6.962;2023-03-07T17:59:57;4.70;99.90
1063;DHT22;520;50.932;6.962;2023-03-07T18:02:40;4.60;99.90
1063;DHT22;520;50.932;6.962;2023-03-07T18:05:21;4.60;99.90
1063;DHT22;520;50.932;6.962;2023-03-07T18:08:03;4.60;99.90
1063;DHT22;520;50.932;6.962;2023-03-07T18:10:45;4.50;99.90
1063;DHT22;520;50.932;6.962;2023-03-07T18:13:12;4.60;99.90
1063;DHT22;520;50.932;6.962;2023-03-07T18:15:44;4.60;99.90
1063;DHT22;520;50.932;6.962;2023-03-07T18:18:21;4.70;99.90
1063;DHT22;520;50.932;6.962;2023-03-07T18:20:58;4.70;99.90
1063;DHT22;520;50.932;6.962;2023-03-07T18:23:26;4.70;99.90
1063;DHT22;520;50.932;6.962;2023-03-07T18:25:57;4.70;99.90
1063;DHT22;520;50.932;6.962;2023-03-07T18:28:24;4.60;99.90
1063;DHT22;520;50.932;6.962;2023-03-07T18:31:04;4.60;99.90
1063;DHT22;520;50.932;6.962;2023-03-07T18:33:33;4.70;99.90
1063;DHT22;520;50.932;6.962;2023-03-07T18:36:17;4.60;99.90
1063;DHT22;520;50.932;6.962;2023-03-07T18:38:52;4.70;99.90
1063;DHT22;520;50.932;6.962;2023-03-07T18:41:21;4.60;99.90
1063;DHT22;520;50.932;6.962;2023-03-07T18:43:55;4.50;99.90
1063;DHT22;520;50.932;6.962;2023-03-07T18:46:26;4.40;99.90
1063;DHT22;520;50.932;6.962;2023-03-07T18:49:04;4.40;99.90
1063;DHT22;520;50.932;6.962;2023-03-07T18:51:33;4.40;99.90
1063;DHT22;520;50.932;6.962;2023-03-07T18:54:14;4.30;99.90
1063;DHT22;520;50.932;6.962;2023-03-07T18:57:12;4.40;99.90
1063;DHT22;520;50.932;6.962;2023-03-07T19:03:02;4.30;99.90
1063;DHT22;520;50.932;6.962;2023-03-07T19:08:28;4.40;99.90
1063;DHT22;520;50.932;6.962;2023-03-07T19:11:02;4.40;99.90
1063;DHT22;520;50.932;6.962;2023-03-07T19:13:42;4.50;99.90
1063;DHT22;520;50.932;6.962;2023-03-07T19:16:18;4.50;99.90
1063;DHT22;520;50.932;6.962;2023-03-07T19:18:46;4.40;99.90
1063;DHT22;520;50.932;6.962;2023-03-07T19:21:26;4.50;99.90
1063;DHT22;520;50.932;6.962;2023-03-07T19:24:00;4.50;99.90
1063;DHT22;520;50.932;6.962;2023-03-07T19:26:29;4.50;99.90
1063;DHT22;520;50.932;6.962;2023-03-07T19:28:59;4.40;99.90
1063;DHT22;520;50.932;6.962;2023-03-07T19:31:31;4.40;99.90
1063;DHT22;520;50.932;6.962;2023-03-07T19:34:03;4.40;99.90
1063;DHT22;520;50.932;6.962;2023-03-07T19:36:36;4.40;99.90
1063;DHT22;520;50.932;6.962;2023-03-07T19:39:05;4.40;99.90
1063;DHT22;520;50.932;6.962;2023-03-07T19:41:37;4.30;99.90
1063;DHT22;520;50.932;6.962;2023-03-07T19:44:11;4.30;99.90
1063;DHT22;520;50.932;6.962;2023-03-07T19:46:38;4.30;99.90
1063;DHT22;520;50.932;6.962;2023-03-07T19:49:12;4.30;99.90
1063;DHT22;520;50.932;6.962;2023-03-07T19:51:50;4.30;99.90
1063;DHT22;520;50.932;6.962;2023-03-07T19:54:17;4.30;99.90
1063;DHT22;520;50.932;6.962;2023-03-07T19:56:49;4.30;99.90
1063;DHT22;520;50.932;6.962;2023-03-07T19:59:21;4.30;99.90
1063;DHT22;520;50.932;6.962;2023-03-07T20:01:53;4.30;99.90